sensor_id;sensor_type;location;lat;lon;timestamp;pressure;altitude;pressure_sealevel;temperature
75092;BMP280;63674;48.048;8.306;2022-10-16T00:01:47;92441.25;;;11.40
75092;BMP280;63674;48.048;8.306;2022-10-16T00:04:16;92428.25;;;11.25
75092;BMP280;63674;48.048;8.306;2022-10-16T00:06:44;92432.28;;;11.15
75092;BMP280;63674;48.048;8.306;2022-10-16T00:09:13;92437.34;;;11.24
75092;BMP280;63674;48.048;8.306;2022-10-16T00:11:42;92435.09;;;11.06
75092;BMP280;63674;48.048;8.306;2022-10-16T00:14:14;92440.88;;;11.15
75092;BMP280;63674;48.048;8.306;2022-10-16T00:16:43;92440.63;;;11.08
75092;BMP280;63674;48.048;8.306;2022-10-16T00:19:12;92432.72;;;11.08
75092;BMP280;63674;48.048;8.306;2022-10-16T00:21:41;92431.72;;;11.00
75092;BMP280;63674;48.048;8.306;2022-10-16T00:24:10;92425.06;;;11.10
75092;BMP280;63674;48.048;8.306;2022-10-16T00:26:40;92438.47;;;11.12
75092;BMP280;63674;48.048;8.306;2022-10-16T00:29:09;92438.88;;;10.99
75092;BMP280;63674;48.048;8.306;2022-10-16T00:31:39;92441.72;;;10.96
75092;BMP280;63674;48.048;8.306;2022-10-16T00:34:08;92434.81;;;10.98
75092;BMP280;63674;48.048;8.306;2022-10-16T00:36:36;92434.09;;;10.98
75092;BMP280;63674;48.048;8.306;2022-10-16T00:39:05;92446.53;;;10.97
75092;BMP280;63674;48.048;8.306;2022-10-16T00:41:34;92447.97;;;10.98
75092;BMP280;63674;48.048;8.306;2022-10-16T00:44:43;92449.25;;;11.08
75092;BMP280;63674;48.048;8.306;2022-10-16T00:47:21;92443.28;;;11.19
75092;BMP280;63674;48.048;8.306;2022-10-16T00:49:58;92444.69;;;11.09
75092;BMP280;63674;48.048;8.306;2022-10-16T00:52:28;92448.53;;;11.08
75092;BMP280;63674;48.048;8.306;2022-10-16T00:54:58;92454.25;;;11.12
75092;BMP280;63674;48.048;8.306;2022-10-16T00:57:27;92460.66;;;11.00
75092;BMP280;63674;48.048;8.306;2022-10-16T00:59:56;92459.38;;;10.90
75092;BMP280;63674;48.048;8.306;2022-10-16T01:02:27;92454.09;;;10.84
75092;BMP280;63674;48.048;8.306;2022-10-16T01:04:55;92445.91;;;10.77
75092;BMP280;63674;48.048;8.306;2022-10-16T01:07:38;92449.31;;;10.83
75092;BMP280;63674;48.048;8.306;2022-10-16T01:10:24;92451.00;;;10.86
75092;BMP280;63674;48.048;8.306;2022-10-16T01:13:01;92455.88;;;10.67
75092;BMP280;63674;48.048;8.306;2022-10-16T01:15:37;92431.19;;;10.53
75092;BMP280;63674;48.048;8.306;2022-10-16T01:18:16;92463.50;;;10.65
75092;BMP280;63674;48.048;8.306;2022-10-16T01:20:50;92473.97;;;10.91
75092;BMP280;63674;48.048;8.306;2022-10-16T01:23:38;92465.50;;;10.76
75092;BMP280;63674;48.048;8.306;2022-10-16T01:26:39;92477.38;;;10.65
75092;BMP280;63674;48.048;8.306;2022-10-16T01:29:18;92475.75;;;10.68
75092;BMP280;63674;48.048;8.306;2022-10-16T01:31:54;92468.66;;;10.80
75092;BMP280;63674;48.048;8.306;2022-10-16T01:34:33;92482.03;;;10.82
75092;BMP280;63674;48.048;8.306;2022-10-16T01:37:09;92478.66;;;10.76
75092;BMP280;63674;48.048;8.306;2022-10-16T01:39:45;92474.28;;;11.04
75092;BMP280;63674;48.048;8.306;2022-10-16T01:42:20;92468.03;;;10.96
75092;BMP280;63674;48.048;8.306;2022-10-16T01:44:52;92471.78;;;10.84
75092;BMP280;63674;48.048;8.306;2022-10-16T01:47:25;92467.25;;;10.84
75092;BMP280;63674;48.048;8.306;2022-10-16T01:50:01;92475.41;;;10.86
75092;BMP280;63674;48.048;8.306;2022-10-16T01:52:35;92476.59;;;10.91
75092;BMP280;63674;48.048;8.306;2022-10-16T01:55:10;92481.41;;;10.92
75092;BMP280;63674;48.048;8.306;2022-10-16T01:57:46;92472.91;;;11.03
75092;BMP280;63674;48.048;8.306;2022-10-16T02:00:20;92471.13;;;10.94
75092;BMP280;63674;48.048;8.306;2022-10-16T02:02:53;92479.75;;;10.95
75092;BMP280;63674;48.048;8.306;2022-10-16T02:05:28;92471.69;;;10.73
75092;BMP280;63674;48.048;8.306;2022-10-16T02:07:58;92456.50;;;10.88
75092;BMP280;63674;48.048;8.306;2022-10-16T02:10:32;92445.03;;;10.91
75092;BMP280;63674;48.048;8.306;2022-10-16T02:13:07;92450.44;;;10.76
75092;BMP280;63674;48.048;8.306;2022-10-16T02:15:38;92456.50;;;10.88
75092;BMP280;63674;48.048;8.306;2022-10-16T02:18:08;92460.81;;;10.91
75092;BMP280;63674;48.048;8.306;2022-10-16T02:20:46;92446.03;;;10.93
75092;BMP280;63674;48.048;8.306;2022-10-16T02:23:24;92439.38;;;10.98
75092;BMP280;63674;48.048;8.306;2022-10-16T02:26:00;92446.97;;;10.96
75092;BMP280;63674;48.048;8.306;2022-10-16T02:28:38;92452.13;;;10.74
75092;BMP280;63674;48.048;8.306;2022-10-16T02:31:12;92455.72;;;10.76
75092;BMP280;63674;48.048;8.306;2022-10-16T02:33:45;92452.91;;;10.85
75092;BMP280;63674;48.048;8.306;2022-10-16T02:36:14;92458.66;;;10.84
75092;BMP280;63674;48.048;8.306;2022-10-16T02:38:43;92468.34;;;11.09
75092;BMP280;63674;48.048;8.306;2022-10-16T02:41:13;92472.78;;;10.86
75092;BMP280;63674;48.048;8.306;2022-10-16T02:43:42;92465.22;;;10.68
75092;BMP280;63674;48.048;8.306;2022-10-16T02:46:12;92468.09;;;10.70
75092;BMP280;63674;48.048;8.306;2022-10-16T02:48:41;92473.66;;;10.78
75092;BMP280;63674;48.048;8.306;2022-10-16T02:51:09;92480.28;;;10.67
75092;BMP280;63674;48.048;8.306;2022-10-16T02:53:38;92479.41;;;10.50
75092;BMP280;63674;48.048;8.306;2022-10-16T02:56:07;92488.41;;;10.69
75092;BMP280;63674;48.048;8.306;2022-10-16T02:58:36;92488.88;;;10.68
75092;BMP280;63674;48.048;8.306;2022-10-16T03:01:04;92491.22;;;10.60
75092;BMP280;63674;48.048;8.306;2022-10-16T03:03:34;92500.16;;;10.74
75092;BMP280;63674;48.048;8.306;2022-10-16T03:06:03;92481.34;;;10.55
75092;BMP280;63674;48.048;8.306;2022-10-16T03:08:33;92490.91;;;10.53
75092;BMP280;63674;48.048;8.306;2022-10-16T03:11:01;92489.44;;;10.78
75092;BMP280;63674;48.048;8.306;2022-10-16T03:13:30;92482.91;;;10.67
75092;BMP280;63674;48.048;8.306;2022-10-16T03:15:58;92485.38;;;10.77
75092;BMP280;63674;48.048;8.306;2022-10-16T03:18:27;92487.59;;;10.58
75092;BMP280;63674;48.048;8.306;2022-10-16T03:20:57;92489.56;;;10.63
75092;BMP280;63674;48.048;8.306;2022-10-16T03:23:26;92479.34;;;10.45
75092;BMP280;63674;48.048;8.306;2022-10-16T03:26:00;92488.91;;;10.42
75092;BMP280;63674;48.048;8.306;2022-10-16T03:28:28;92490.19;;;10.52
75092;BMP280;63674;48.048;8.306;2022-10-16T03:30:57;92480.31;;;10.73
75092;BMP280;63674;48.048;8.306;2022-10-16T03:33:25;92488.78;;;10.57
75092;BMP280;63674;48.048;8.306;2022-10-16T03:35:54;92481.53;;;10.46
75092;BMP280;63674;48.048;8.306;2022-10-16T03:38:24;92476.09;;;10.55
75092;BMP280;63674;48.048;8.306;2022-10-16T03:40:53;92491.22;;;10.60
75092;BMP280;63674;48.048;8.306;2022-10-16T03:43:21;92482.63;;;10.65
75092;BMP280;63674;48.048;8.306;2022-10-16T03:45:51;92460.72;;;10.43
75092;BMP280;63674;48.048;8.306;2022-10-16T03:48:19;92485.22;;;10.54
75092;BMP280;63674;48.048;8.306;2022-10-16T03:50:48;92476.88;;;10.61
75092;BMP280;63674;48.048;8.306;2022-10-16T03:53:17;92468.88;;;10.50
75092;BMP280;63674;48.048;8.306;2022-10-16T03:55:47;92483.59;;;10.62
75092;BMP280;63674;48.048;8.306;2022-10-16T03:58:16;92478.56;;;10.64
75092;BMP280;63674;48.048;8.306;2022-10-16T04:00:45;92470.38;;;10.57
75092;BMP280;63674;48.048;8.306;2022-10-16T04:03:15;92477.75;;;10.79
75092;BMP280;63674;48.048;8.306;2022-10-16T04:05:44;92478.34;;;10.62
75092;BMP280;63674;48.048;8.306;2022-10-16T04:08:13;92477.03;;;10.52
75092;BMP280;63674;48.048;8.306;2022-10-16T04:10:42;92479.09;;;10.43
75092;BMP280;63674;48.048;8.306;2022-10-16T04:13:13;92473.28;;;10.59
75092;BMP280;63674;48.048;8.306;2022-10-16T04:15:41;92486.59;;;10.81
75092;BMP280;63674;48.048;8.306;2022-10-16T04:18:10;92488.31;;;10.90
75092;BMP280;63674;48.048;8.306;2022-10-16T04:20:39;92500.84;;;10.69
75092;BMP280;63674;48.048;8.306;2022-10-16T04:23:09;92493.47;;;10.47
75092;BMP280;63674;48.048;8.306;2022-10-16T04:25:37;92500.44;;;10.50
75092;BMP280;63674;48.048;8.306;2022-10-16T04:28:06;92498.72;;;10.47
75092;BMP280;63674;48.048;8.306;2022-10-16T04:30:38;92502.72;;;10.63
75092;BMP280;63674;48.048;8.306;2022-10-16T04:33:08;92501.00;;;10.60
75092;BMP280;63674;48.048;8.306;2022-10-16T04:35:37;92497.06;;;10.44
75092;BMP280;63674;48.048;8.306;2022-10-16T04:38:06;92503.75;;;10.45
75092;BMP280;63674;48.048;8.306;2022-10-16T04:40:35;92509.69;;;10.20
75092;BMP280;63674;48.048;8.306;2022-10-16T04:43:03;92511.41;;;10.23
75092;BMP280;63674;48.048;8.306;2022-10-16T04:45:32;92504.22;;;10.44
75092;BMP280;63674;48.048;8.306;2022-10-16T04:48:02;92517.81;;;10.42
75092;BMP280;63674;48.048;8.306;2022-10-16T04:50:31;92527.81;;;10.38
75092;BMP280;63674;48.048;8.306;2022-10-16T04:53:00;92524.38;;;10.52
75092;BMP280;63674;48.048;8.306;2022-10-16T04:55:29;92518.59;;;10.48
75092;BMP280;63674;48.048;8.306;2022-10-16T04:57:58;92512.44;;;10.57
75092;BMP280;63674;48.048;8.306;2022-10-16T05:00:27;92513.91;;;10.58
75092;BMP280;63674;48.048;8.306;2022-10-16T05:02:55;92513.06;;;10.46
75092;BMP280;63674;48.048;8.306;2022-10-16T05:05:26;92513.69;;;10.61
75092;BMP280;63674;48.048;8.306;2022-10-16T05:07:54;92513.28;;;10.68
75092;BMP280;63674;48.048;8.306;2022-10-16T05:10:23;92509.25;;;10.47
75092;BMP280;63674;48.048;8.306;2022-10-16T05:12:51;92507.31;;;10.42
75092;BMP280;63674;48.048;8.306;2022-10-16T05:15:20;92503.50;;;10.43
75092;BMP280;63674;48.048;8.306;2022-10-16T05:17:53;92507.59;;;10.76
75092;BMP280;63674;48.048;8.306;2022-10-16T05:20:22;92508.44;;;10.61
75092;BMP280;63674;48.048;8.306;2022-10-16T05:22:52;92505.41;;;10.68
75092;BMP280;63674;48.048;8.306;2022-10-16T05:25:21;92514.13;;;10.54
75092;BMP280;63674;48.048;8.306;2022-10-16T05:27:50;92501.91;;;10.31
75092;BMP280;63674;48.048;8.306;2022-10-16T05:30:18;92513.81;;;10.47
75092;BMP280;63674;48.048;8.306;2022-10-16T05:32:48;92513.81;;;10.47
75092;BMP280;63674;48.048;8.306;2022-10-16T05:35:19;92514.91;;;10.66
75092;BMP280;63674;48.048;8.306;2022-10-16T05:37:48;92523.25;;;10.64
75092;BMP280;63674;48.048;8.306;2022-10-16T05:40:18;92521.31;;;10.34
75092;BMP280;63674;48.048;8.306;2022-10-16T05:42:46;92537.78;;;10.54
75092;BMP280;63674;48.048;8.306;2022-10-16T05:45:15;92535.09;;;10.49
75092;BMP280;63674;48.048;8.306;2022-10-16T05:47:43;92539.47;;;10.57
75092;BMP280;63674;48.048;8.306;2022-10-16T05:50:12;92542.25;;;10.48
75092;BMP280;63674;48.048;8.306;2022-10-16T05:52:40;92554.56;;;10.62
75092;BMP280;63674;48.048;8.306;2022-10-16T05:55:09;92547.00;;;10.44
75092;BMP280;63674;48.048;8.306;2022-10-16T05:57:39;92553.88;;;10.42
75092;BMP280;63674;48.048;8.306;2022-10-16T06:00:09;92550.97;;;10.40
75092;BMP280;63674;48.048;8.306;2022-10-16T06:02:38;92544.31;;;10.39
75092;BMP280;63674;48.048;8.306;2022-10-16T06:05:07;92539.38;;;10.46
75092;BMP280;63674;48.048;8.306;2022-10-16T06:07:36;92546.03;;;10.47
75092;BMP280;63674;48.048;8.306;2022-10-16T06:10:06;92542.63;;;10.41
75092;BMP280;63674;48.048;8.306;2022-10-16T06:12:35;92540.72;;;10.62
75092;BMP280;63674;48.048;8.306;2022-10-16T06:15:05;92547.50;;;10.74
75092;BMP280;63674;48.048;8.306;2022-10-16T06:17:34;92547.88;;;10.61
75092;BMP280;63674;48.048;8.306;2022-10-16T06:20:03;92551.53;;;10.69
75092;BMP280;63674;48.048;8.306;2022-10-16T06:22:32;92559.16;;;10.67
75092;BMP280;63674;48.048;8.306;2022-10-16T06:25:00;92562.84;;;10.81
75092;BMP280;63674;48.048;8.306;2022-10-16T06:27:29;92561.91;;;10.79
75092;BMP280;63674;48.048;8.306;2022-10-16T06:29:57;92571.25;;;10.85
75092;BMP280;63674;48.048;8.306;2022-10-16T06:32:27;92573.44;;;10.87
75092;BMP280;63674;48.048;8.306;2022-10-16T06:34:56;92574.66;;;10.91
75092;BMP280;63674;48.048;8.306;2022-10-16T06:37:24;92576.59;;;10.96
75092;BMP280;63674;48.048;8.306;2022-10-16T06:39:54;92576.31;;;11.20
75092;BMP280;63674;48.048;8.306;2022-10-16T06:42:22;92584.69;;;11.18
75092;BMP280;63674;48.048;8.306;2022-10-16T06:44:51;92588.97;;;11.16
75092;BMP280;63674;48.048;8.306;2022-10-16T06:47:20;92594.91;;;11.11
75092;BMP280;63674;48.048;8.306;2022-10-16T06:49:50;92597.81;;;11.13
75092;BMP280;63674;48.048;8.306;2022-10-16T06:52:20;92602.53;;;11.09
75092;BMP280;63674;48.048;8.306;2022-10-16T06:54:50;92609.88;;;11.25
75092;BMP280;63674;48.048;8.306;2022-10-16T06:57:18;92606.84;;;11.43
75092;BMP280;63674;48.048;8.306;2022-10-16T06:59:47;92612.75;;;11.27
75092;BMP280;63674;48.048;8.306;2022-10-16T07:02:21;92617.09;;;11.36
75092;BMP280;63674;48.048;8.306;2022-10-16T07:04:51;92617.38;;;11.43
75092;BMP280;63674;48.048;8.306;2022-10-16T07:07:20;92618.06;;;11.38
75092;BMP280;63674;48.048;8.306;2022-10-16T07:09:51;92614.47;;;11.36
75092;BMP280;63674;48.048;8.306;2022-10-16T07:12:20;92620.97;;;11.40
75092;BMP280;63674;48.048;8.306;2022-10-16T07:14:49;92626.31;;;11.51
75092;BMP280;63674;48.048;8.306;2022-10-16T07:17:19;92630.84;;;11.51
75092;BMP280;63674;48.048;8.306;2022-10-16T07:19:48;92637.78;;;11.48
75092;BMP280;63674;48.048;8.306;2022-10-16T07:22:18;92643.44;;;11.67
75092;BMP280;63674;48.048;8.306;2022-10-16T07:24:46;92642.69;;;11.66
75092;BMP280;63674;48.048;8.306;2022-10-16T07:27:18;92648.59;;;11.56
75092;BMP280;63674;48.048;8.306;2022-10-16T07:29:49;92646.94;;;11.58
75092;BMP280;63674;48.048;8.306;2022-10-16T07:32:18;92653.75;;;11.70
75092;BMP280;63674;48.048;8.306;2022-10-16T07:34:46;92655.69;;;11.75
75092;BMP280;63674;48.048;8.306;2022-10-16T07:37:17;92655.69;;;11.75
75092;BMP280;63674;48.048;8.306;2022-10-16T07:39:45;92657.66;;;11.86
75092;BMP280;63674;48.048;8.306;2022-10-16T07:42:14;92662.16;;;11.80
75092;BMP280;63674;48.048;8.306;2022-10-16T07:44:42;92664.84;;;11.86
75092;BMP280;63674;48.048;8.306;2022-10-16T07:47:11;92666.88;;;12.02
75092;BMP280;63674;48.048;8.306;2022-10-16T07:49:40;92674.25;;;11.92
75092;BMP280;63674;48.048;8.306;2022-10-16T07:52:08;92674.13;;;12.18
75092;BMP280;63674;48.048;8.306;2022-10-16T07:54:38;92672.47;;;12.20
75092;BMP280;63674;48.048;8.306;2022-10-16T07:57:07;92676.81;;;12.29
75092;BMP280;63674;48.048;8.306;2022-10-16T07:59:35;92690.16;;;12.14
75092;BMP280;63674;48.048;8.306;2022-10-16T08:02:04;92684.00;;;12.28
75092;BMP280;63674;48.048;8.306;2022-10-16T08:04:33;92691.94;;;12.34
75092;BMP280;63674;48.048;8.306;2022-10-16T08:07:01;92692.91;;;12.42
75092;BMP280;63674;48.048;8.306;2022-10-16T08:09:30;92693.19;;;12.44
75092;BMP280;63674;48.048;8.306;2022-10-16T08:12:00;92693.00;;;12.64
75092;BMP280;63674;48.048;8.306;2022-10-16T08:14:29;92697.38;;;12.78
75092;BMP280;63674;48.048;8.306;2022-10-16T08:16:58;92689.75;;;13.03
75092;BMP280;63674;48.048;8.306;2022-10-16T08:19:26;92705.34;;;13.17
75092;BMP280;63674;48.048;8.306;2022-10-16T08:21:55;92694.56;;;13.10
75092;BMP280;63674;48.048;8.306;2022-10-16T08:24:23;92710.63;;;13.12
75092;BMP280;63674;48.048;8.306;2022-10-16T08:26:53;92702.00;;;13.17
75092;BMP280;63674;48.048;8.306;2022-10-16T08:29:23;92702.72;;;13.06
75092;BMP280;63674;48.048;8.306;2022-10-16T08:31:52;92712.09;;;13.18
75092;BMP280;63674;48.048;8.306;2022-10-16T08:34:21;92713.53;;;13.08
75092;BMP280;63674;48.048;8.306;2022-10-16T08:36:49;92713.78;;;13.21
75092;BMP280;63674;48.048;8.306;2022-10-16T08:39:18;92723.63;;;13.32
75092;BMP280;63674;48.048;8.306;2022-10-16T08:42:18;92734.94;;;13.49
75092;BMP280;63674;48.048;8.306;2022-10-16T08:45:19;92728.19;;;13.70
75092;BMP280;63674;48.048;8.306;2022-10-16T08:48:04;92720.00;;;13.79
75092;BMP280;63674;48.048;8.306;2022-10-16T08:50:39;92713.78;;;13.77
75092;BMP280;63674;48.048;8.306;2022-10-16T08:53:16;92718.81;;;13.80
75092;BMP280;63674;48.048;8.306;2022-10-16T08:55:50;92718.06;;;13.85
75092;BMP280;63674;48.048;8.306;2022-10-16T08:58:21;92720.47;;;13.94
75092;BMP280;63674;48.048;8.306;2022-10-16T09:00:55;92722.66;;;13.96
75092;BMP280;63674;48.048;8.306;2022-10-16T09:03:54;92714.94;;;14.09
75092;BMP280;63674;48.048;8.306;2022-10-16T09:06:40;92711.06;;;14.10
75092;BMP280;63674;48.048;8.306;2022-10-16T09:09:41;92723.06;;;14.28
75092;BMP280;63674;48.048;8.306;2022-10-16T09:12:20;92725.75;;;14.11
75092;BMP280;63674;48.048;8.306;2022-10-16T09:15:05;92723.78;;;14.28
75092;BMP280;63674;48.048;8.306;2022-10-16T09:17:53;92726.91;;;14.38
75092;BMP280;63674;48.048;8.306;2022-10-16T09:20:34;92738.63;;;14.48
75092;BMP280;63674;48.048;8.306;2022-10-16T09:23:19;92734.13;;;14.32
75092;BMP280;63674;48.048;8.306;2022-10-16T09:25:50;92728.53;;;14.41
75092;BMP280;63674;48.048;8.306;2022-10-16T09:28:19;92732.56;;;14.53
75092;BMP280;63674;48.048;8.306;2022-10-16T09:30:48;92737.41;;;14.54
75092;BMP280;63674;48.048;8.306;2022-10-16T09:33:24;92734.47;;;14.58
75092;BMP280;63674;48.048;8.306;2022-10-16T09:35:56;92739.97;;;14.76
75092;BMP280;63674;48.048;8.306;2022-10-16T09:38:28;92743.53;;;14.85
75092;BMP280;63674;48.048;8.306;2022-10-16T09:41:00;92738.31;;;15.14
75092;BMP280;63674;48.048;8.306;2022-10-16T09:43:36;92747.66;;;15.21
75092;BMP280;63674;48.048;8.306;2022-10-16T09:46:26;92737.91;;;15.40
75092;BMP280;63674;48.048;8.306;2022-10-16T09:48:59;92747.78;;;15.69
75092;BMP280;63674;48.048;8.306;2022-10-16T09:51:30;92741.19;;;15.76
75092;BMP280;63674;48.048;8.306;2022-10-16T09:54:11;92748.72;;;15.72
75092;BMP280;63674;48.048;8.306;2022-10-16T09:56:41;92742.84;;;15.55
75092;BMP280;63674;48.048;8.306;2022-10-16T09:59:15;92754.06;;;15.96
75092;BMP280;63674;48.048;8.306;2022-10-16T10:01:48;92749.06;;;16.35
75092;BMP280;63674;48.048;8.306;2022-10-16T10:04:21;92757.47;;;16.39
75092;BMP280;63674;48.048;8.306;2022-10-16T10:06:52;92751.47;;;16.15
75092;BMP280;63674;48.048;8.306;2022-10-16T10:09:25;92759.91;;;15.89
75092;BMP280;63674;48.048;8.306;2022-10-16T10:11:56;92759.13;;;15.70
75092;BMP280;63674;48.048;8.306;2022-10-16T10:14:31;92759.84;;;15.65
75092;BMP280;63674;48.048;8.306;2022-10-16T10:17:14;92755.69;;;15.75
75092;BMP280;63674;48.048;8.306;2022-10-16T10:19:50;92753.81;;;15.70
75092;BMP280;63674;48.048;8.306;2022-10-16T10:22:25;92754.69;;;15.78
75092;BMP280;63674;48.048;8.306;2022-10-16T10:24:57;92747.41;;;15.84
75092;BMP280;63674;48.048;8.306;2022-10-16T10:27:36;92754.91;;;15.85
75092;BMP280;63674;48.048;8.306;2022-10-16T10:30:14;92745.66;;;16.16
75092;BMP280;63674;48.048;8.306;2022-10-16T10:32:56;92752.81;;;16.45
75092;BMP280;63674;48.048;8.306;2022-10-16T10:35:40;92754.03;;;16.44
75092;BMP280;63674;48.048;8.306;2022-10-16T10:38:27;92754.00;;;16.87
75092;BMP280;63674;48.048;8.306;2022-10-16T10:41:15;92743.88;;;17.04
75092;BMP280;63674;48.048;8.306;2022-10-16T10:44:01;92746.66;;;17.12
75092;BMP280;63674;48.048;8.306;2022-10-16T10:46:35;92747.25;;;17.68
75092;BMP280;63674;48.048;8.306;2022-10-16T10:49:31;92743.22;;;18.07
75092;BMP280;63674;48.048;8.306;2022-10-16T10:52:30;92748.19;;;17.97
75092;BMP280;63674;48.048;8.306;2022-10-16T10:55:15;92744.44;;;18.06
75092;BMP280;63674;48.048;8.306;2022-10-16T10:58:12;92745.13;;;18.32
75092;BMP280;63674;48.048;8.306;2022-10-16T11:00:56;92740.56;;;18.07
75092;BMP280;63674;48.048;8.306;2022-10-16T11:03:55;92739.31;;;18.21
75092;BMP280;63674;48.048;8.306;2022-10-16T11:06:34;92742.97;;;18.05
75092;BMP280;63674;48.048;8.306;2022-10-16T11:09:12;92744.22;;;18.17
75092;BMP280;63674;48.048;8.306;2022-10-16T11:11:48;92738.72;;;18.02
75092;BMP280;63674;48.048;8.306;2022-10-16T11:14:22;92731.59;;;17.78
75092;BMP280;63674;48.048;8.306;2022-10-16T11:16:57;92745.22;;;17.87
75092;BMP280;63674;48.048;8.306;2022-10-16T11:19:37;92739.06;;;17.66
75092;BMP280;63674;48.048;8.306;2022-10-16T11:22:18;92742.16;;;17.83
75092;BMP280;63674;48.048;8.306;2022-10-16T11:24:55;92733.09;;;18.65
75092;BMP280;63674;48.048;8.306;2022-10-16T11:27:38;92722.91;;;18.43
75092;BMP280;63674;48.048;8.306;2022-10-16T11:30:18;92728.19;;;18.56
75092;BMP280;63674;48.048;8.306;2022-10-16T11:33:13;92712.97;;;19.11
75092;BMP280;63674;48.048;8.306;2022-10-16T11:35:53;92725.28;;;20.19
75092;BMP280;63674;48.048;8.306;2022-10-16T11:38:29;92714.72;;;20.49
75092;BMP280;63674;48.048;8.306;2022-10-16T11:41:12;92713.91;;;20.69
75092;BMP280;63674;48.048;8.306;2022-10-16T11:43:49;92714.78;;;20.79
75092;BMP280;63674;48.048;8.306;2022-10-16T11:46:24;92710.50;;;20.69
75092;BMP280;63674;48.048;8.306;2022-10-16T11:49:04;92720.75;;;20.42
75092;BMP280;63674;48.048;8.306;2022-10-16T11:51:41;92718.91;;;20.88
75092;BMP280;63674;48.048;8.306;2022-10-16T11:54:22;92707.47;;;20.72
75092;BMP280;63674;48.048;8.306;2022-10-16T11:57:02;92710.63;;;20.48
75092;BMP280;63674;48.048;8.306;2022-10-16T11:59:42;92703.25;;;20.34
75092;BMP280;63674;48.048;8.306;2022-10-16T12:02:35;92701.78;;;20.68
75092;BMP280;63674;48.048;8.306;2022-10-16T12:05:22;92697.50;;;20.65
75092;BMP280;63674;48.048;8.306;2022-10-16T12:08:04;92700.69;;;20.64
75092;BMP280;63674;48.048;8.306;2022-10-16T12:10:35;92701.78;;;20.61
75092;BMP280;63674;48.048;8.306;2022-10-16T12:13:30;92701.47;;;20.95
75092;BMP280;63674;48.048;8.306;2022-10-16T12:16:22;92702.94;;;21.11
75092;BMP280;63674;48.048;8.306;2022-10-16T12:19:11;92702.34;;;20.90
75092;BMP280;63674;48.048;8.306;2022-10-16T12:21:40;92712.00;;;21.08
75092;BMP280;63674;48.048;8.306;2022-10-16T12:24:30;92712.53;;;20.99
75092;BMP280;63674;48.048;8.306;2022-10-16T12:27:00;92712.38;;;21.19
75092;BMP280;63674;48.048;8.306;2022-10-16T12:29:36;92708.56;;;20.92
75092;BMP280;63674;48.048;8.306;2022-10-16T12:32:27;92702.94;;;20.96
75092;BMP280;63674;48.048;8.306;2022-10-16T12:35:21;92709.28;;;20.77
75092;BMP280;63674;48.048;8.306;2022-10-16T12:37:51;92706.75;;;20.72
75092;BMP280;63674;48.048;8.306;2022-10-16T12:40:30;92703.19;;;20.54
75092;BMP280;63674;48.048;8.306;2022-10-16T12:43:11;92701.78;;;20.68
75092;BMP280;63674;48.048;8.306;2022-10-16T12:45:41;92704.69;;;20.86
75092;BMP280;63674;48.048;8.306;2022-10-16T12:48:22;92705.03;;;20.90
75092;BMP280;63674;48.048;8.306;2022-10-16T12:51:22;92709.66;;;20.97
75092;BMP280;63674;48.048;8.306;2022-10-16T12:54:01;92711.63;;;20.89
75092;BMP280;63674;48.048;8.306;2022-10-16T12:56:49;92708.22;;;20.88
75092;BMP280;63674;48.048;8.306;2022-10-16T12:59:33;92708.91;;;20.66
75092;BMP280;63674;48.048;8.306;2022-10-16T13:02:41;92706.47;;;20.91
75092;BMP280;63674;48.048;8.306;2022-10-16T13:05:26;92708.94;;;20.81
75092;BMP280;63674;48.048;8.306;2022-10-16T13:08:17;92711.63;;;20.89
75092;BMP280;63674;48.048;8.306;2022-10-16T13:11:04;92707.69;;;20.74
75092;BMP280;63674;48.048;8.306;2022-10-16T13:14:07;92710.16;;;20.80
75092;BMP280;63674;48.048;8.306;2022-10-16T13:16:54;92703.59;;;20.89
75092;BMP280;63674;48.048;8.306;2022-10-16T13:19:37;92696.13;;;20.95
75092;BMP280;63674;48.048;8.306;2022-10-16T13:22:21;92703.22;;;20.92
75092;BMP280;63674;48.048;8.306;2022-10-16T13:25:16;92699.13;;;20.83
75092;BMP280;63674;48.048;8.306;2022-10-16T13:27:54;92704.69;;;20.86
75092;BMP280;63674;48.048;8.306;2022-10-16T13:30:26;92701.25;;;20.77
75092;BMP280;63674;48.048;8.306;2022-10-16T13:33:01;92699.66;;;20.82
75092;BMP280;63674;48.048;8.306;2022-10-16T13:35:34;92698.56;;;20.62
75092;BMP280;63674;48.048;8.306;2022-10-16T13:38:15;92699.97;;;20.63
75092;BMP280;63674;48.048;8.306;2022-10-16T13:40:56;92703.88;;;20.55
75092;BMP280;63674;48.048;8.306;2022-10-16T13:43:29;92706.34;;;20.53
75092;BMP280;63674;48.048;8.306;2022-10-16T13:46:02;92708.44;;;20.39
75092;BMP280;63674;48.048;8.306;2022-10-16T13:48:33;92706.03;;;20.64
75092;BMP280;63674;48.048;8.306;2022-10-16T13:51:06;92711.41;;;20.71
75092;BMP280;63674;48.048;8.306;2022-10-16T13:53:40;92707.06;;;20.53
75092;BMP280;63674;48.048;8.306;2022-10-16T13:56:12;92719.91;;;20.55
75092;BMP280;63674;48.048;8.306;2022-10-16T13:58:42;92719.50;;;20.43
75092;BMP280;63674;48.048;8.306;2022-10-16T14:01:19;92717.69;;;20.31
75092;BMP280;63674;48.048;8.306;2022-10-16T14:04:07;92715.16;;;20.25
75092;BMP280;63674;48.048;8.306;2022-10-16T14:06:42;92721.88;;;20.19
75092;BMP280;63674;48.048;8.306;2022-10-16T14:09:22;92719.09;;;19.96
75092;BMP280;63674;48.048;8.306;2022-10-16T14:11:54;92729.59;;;19.94
75092;BMP280;63674;48.048;8.306;2022-10-16T14:14:26;92725.63;;;19.87
75092;BMP280;63674;48.048;8.306;2022-10-16T14:16:56;92728.63;;;19.84
75092;BMP280;63674;48.048;8.306;2022-10-16T14:19:28;92733.81;;;19.82
75092;BMP280;63674;48.048;8.306;2022-10-16T14:22:01;92727.75;;;19.81
75092;BMP280;63674;48.048;8.306;2022-10-16T14:24:34;92729.72;;;19.88
75092;BMP280;63674;48.048;8.306;2022-10-16T14:27:26;92736.63;;;19.84
75092;BMP280;63674;48.048;8.306;2022-10-16T14:30:17;92724.13;;;19.79
75092;BMP280;63674;48.048;8.306;2022-10-16T14:32:58;92726.88;;;19.86
75092;BMP280;63674;48.048;8.306;2022-10-16T14:35:30;92737.03;;;19.88
75092;BMP280;63674;48.048;8.306;2022-10-16T14:38:03;92738.53;;;19.76
75092;BMP280;63674;48.048;8.306;2022-10-16T14:40:36;92733.63;;;19.59
75092;BMP280;63674;48.048;8.306;2022-10-16T14:43:05;92740.38;;;19.60
75092;BMP280;63674;48.048;8.306;2022-10-16T14:45:35;92742.59;;;19.69
75092;BMP280;63674;48.048;8.306;2022-10-16T14:48:14;92740.72;;;19.57
75092;BMP280;63674;48.048;8.306;2022-10-16T14:50:46;92735.06;;;19.60